createdAt,value
2023-01-29T00:02:25.897Z,72.02
2023-01-29T00:04:52.534Z,71.71
2023-01-29T00:07:19.080Z,71.53
2023-01-29T00:09:45.461Z,71.71
2023-01-29T00:12:11.887Z,71.62
2023-01-29T00:14:38.279Z,72.05
2023-01-29T00:17:04.692Z,72.34
2023-01-29T00:19:31.071Z,71.62
2023-01-29T00:21:57.943Z,71.71
2023-01-29T00:24:24.452Z,71.42
2023-01-29T00:26:50.885Z,71.78
2023-01-29T00:29:17.859Z,71.86
2023-01-29T00:31:45.433Z,71.71
2023-01-29T00:34:11.884Z,71.71
2023-01-29T00:36:38.251Z,72.02
2023-01-29T00:39:10.792Z,71.85
2023-01-29T00:41:56.501Z,71.39
2023-01-29T00:44:41.754Z,72.14
2023-01-29T00:47:28.074Z,71.77
2023-01-29T00:49:54.687Z,72.55
2023-01-29T00:52:26.839Z,72.47
2023-01-29T00:54:58.163Z,72.07
2023-01-29T00:57:26.743Z,71.83
2023-01-29T00:59:53.585Z,72.42
2023-01-29T01:02:39.143Z,71.91
2023-01-29T01:05:07.744Z,72.40
2023-01-29T01:07:34.244Z,72.47
2023-01-29T01:10:19.211Z,72.03
2023-01-29T01:12:45.913Z,71.52
2023-01-29T01:15:12.546Z,71.76
2023-01-29T01:17:38.970Z,71.75
2023-01-29T01:20:05.798Z,71.49
2023-01-29T01:22:32.168Z,71.47
2023-01-29T01:24:58.586Z,71.76
2023-01-29T01:27:25.645Z,72.19
2023-01-29T01:29:52.101Z,71.58
2023-01-29T01:32:18.558Z,72.49
2023-01-29T01:34:45.333Z,72.11
2023-01-29T01:37:11.722Z,71.79
2023-01-29T01:39:38.252Z,71.63
2023-01-29T01:42:11.506Z,71.74
2023-01-29T01:44:56.725Z,71.49
2023-01-29T01:47:40.482Z,72.75
2023-01-29T01:50:15.822Z,72.28
2023-01-29T01:52:47.206Z,72.45
2023-01-29T01:55:17.293Z,72.51
2023-01-29T01:57:45.408Z,72.55
2023-01-29T02:00:15.686Z,72.25
2023-01-29T02:03:03.295Z,72.31
2023-01-29T02:05:51.407Z,72.34
2023-01-29T02:08:45.367Z,72.23
2023-01-29T02:11:11.965Z,72.77
2023-01-29T02:13:38.464Z,72.83
2023-01-29T02:16:05.113Z,73.02
2023-01-29T02:18:37.973Z,72.79
2023-01-29T02:21:34.524Z,73.46
2023-01-29T02:24:27.191Z,73.56
2023-01-29T02:26:58.675Z,73.51
2023-01-29T02:29:36.697Z,73.67
2023-01-29T02:32:14.990Z,73.69
2023-01-29T02:35:11.970Z,74.52
2023-01-29T02:37:45.417Z,73.77
2023-01-29T02:40:27.272Z,73.85
2023-01-29T02:43:04.351Z,73.87
2023-01-29T02:45:53.715Z,74.49
2023-01-29T02:48:23.843Z,74.53
2023-01-29T02:50:57.906Z,74.74
2023-01-29T02:53:37.632Z,74.18
2023-01-29T02:56:13.103Z,74.54
2023-01-29T02:58:53.051Z,74.49
2023-01-29T03:01:31.868Z,74.22
2023-01-29T03:04:04.018Z,74.32
2023-01-29T03:06:35.560Z,74.35
2023-01-29T03:09:09.955Z,74.59
2023-01-29T03:11:45.115Z,73.83
2023-01-29T03:14:50.563Z,74.20
2023-01-29T03:17:18.355Z,73.85
2023-01-29T03:19:47.273Z,74.04
2023-01-29T03:22:16.605Z,73.70
2023-01-29T03:25:20.201Z,73.72
2023-01-29T03:28:09.662Z,72.99
2023-01-29T03:30:59.511Z,73.08
2023-01-29T03:33:27.695Z,73.71
2023-01-29T03:36:02.294Z,73.04
2023-01-29T03:38:29.479Z,72.84
2023-01-29T03:41:08.483Z,72.46
2023-01-29T03:43:52.874Z,73.26
2023-01-29T03:46:31.498Z,73.30
2023-01-29T03:49:08.208Z,73.41
2023-01-29T03:51:46.726Z,73.38
2023-01-29T03:54:28.034Z,73.64
2023-01-29T03:57:15.643Z,73.78
2023-01-29T03:59:57.824Z,73.19
2023-01-29T04:02:32.393Z,74.15
2023-01-29T04:05:09.206Z,74.08
2023-01-29T04:07:36.664Z,74.41
2023-01-29T04:10:12.063Z,74.04
2023-01-29T04:12:45.567Z,74.78
2023-01-29T04:15:15.462Z,74.55
2023-01-29T04:17:48.716Z,75.01
2023-01-29T04:20:16.115Z,74.65
2023-01-29T04:22:46.398Z,74.54
2023-01-29T04:25:17.490Z,74.60
2023-01-29T04:28:02.777Z,74.76
2023-01-29T04:30:50.352Z,74.80
2023-01-29T04:33:49.402Z,74.93
2023-01-29T04:36:26.278Z,74.68
2023-01-29T04:39:26.718Z,74.70
2023-01-29T04:42:23.983Z,75.12
2023-01-29T04:45:04.530Z,74.84
2023-01-29T04:47:56.254Z,74.31
2023-01-29T04:50:29.424Z,74.72
2023-01-29T04:53:16.339Z,74.79
2023-01-29T04:56:09.517Z,74.99
2023-01-29T04:58:41.599Z,74.57
2023-01-29T05:01:14.221Z,74.50
2023-01-29T05:03:44.205Z,75.05
2023-01-29T05:06:11.679Z,74.97
2023-01-29T05:08:40.112Z,74.70
2023-01-29T05:11:07.284Z,74.61
2023-01-29T05:13:39.256Z,75.18
2023-01-29T05:16:16.932Z,74.93
2023-01-29T05:18:43.583Z,75.91
2023-01-29T05:21:10.053Z,75.59
2023-01-29T05:23:36.533Z,75.51
2023-01-29T05:26:03.471Z,74.89
2023-01-29T05:28:29.836Z,75.18
2023-01-29T05:30:57.261Z,75.38
2023-01-29T05:33:31.379Z,75.36
2023-01-29T05:36:01.135Z,75.44
2023-01-29T05:38:27.599Z,74.05
2023-01-29T05:40:54.381Z,75.23
2023-01-29T05:43:25.022Z,75.45
2023-01-29T05:45:59.327Z,75.51
2023-01-29T05:48:28.705Z,75.30
2023-01-29T05:51:00.341Z,75.35
2023-01-29T05:53:26.706Z,75.87
2023-01-29T05:55:53.192Z,75.71
2023-01-29T05:58:19.820Z,76.05
2023-01-29T06:00:46.275Z,76.00
2023-01-29T06:03:12.755Z,76.06
2023-01-29T06:05:40.046Z,75.62
2023-01-29T06:08:07.337Z,76.21
2023-01-29T06:10:34.016Z,75.45
2023-01-29T06:13:00.536Z,75.47
2023-01-29T06:15:27.476Z,76.06
2023-01-29T06:17:54.805Z,75.73
2023-01-29T06:20:21.308Z,75.94
2023-01-29T06:22:47.672Z,75.83
2023-01-29T06:25:14.122Z,76.13
2023-01-29T06:27:40.510Z,75.83
2023-01-29T06:30:07.551Z,75.37
2023-01-29T06:32:34.355Z,75.55
2023-01-29T06:35:00.750Z,74.69
2023-01-29T06:37:27.109Z,75.81
2023-01-29T06:39:53.472Z,75.85
2023-01-29T06:42:20.534Z,75.46
2023-01-29T06:44:46.892Z,75.02
2023-01-29T06:47:13.404Z,75.67
2023-01-29T06:49:39.816Z,74.95
2023-01-29T06:52:06.734Z,75.14
2023-01-29T06:54:33.121Z,74.61
2023-01-29T06:56:59.511Z,74.22
2023-01-29T06:59:25.942Z,74.23
2023-01-29T07:01:52.430Z,74.26
2023-01-29T07:04:18.876Z,73.98
2023-01-29T07:06:45.241Z,73.63
2023-01-29T07:09:13.917Z,74.56
2023-01-29T07:11:40.456Z,73.93
2023-01-29T07:14:07.290Z,73.74
2023-01-29T07:16:33.956Z,73.33
2023-01-29T07:19:01.576Z,73.87
2023-01-29T07:21:28.116Z,73.59
2023-01-29T07:23:54.613Z,73.59
2023-01-29T07:26:21.104Z,73.78
2023-01-29T07:28:47.485Z,73.58
2023-01-29T07:31:15.156Z,73.72
2023-01-29T07:33:44.363Z,73.51
2023-01-29T07:36:12.147Z,73.76
2023-01-29T07:38:38.547Z,73.34
2023-01-29T07:41:05.056Z,72.91
2023-01-29T07:43:31.655Z,73.11
2023-01-29T07:46:01.830Z,73.49
2023-01-29T07:48:28.314Z,73.37
2023-01-29T07:50:56.259Z,73.03
2023-01-29T07:53:23.182Z,72.91
2023-01-29T07:55:49.651Z,72.46
2023-01-29T07:58:16.406Z,73.11
2023-01-29T08:00:43.683Z,72.93
2023-01-29T08:03:16.237Z,73.00
2023-01-29T08:05:43.699Z,72.40
2023-01-29T08:08:10.469Z,73.34
2023-01-29T08:10:37.550Z,73.29
2023-01-29T08:13:05.301Z,73.01
2023-01-29T08:15:32.635Z,72.88
2023-01-29T08:18:00.787Z,72.37
2023-01-29T08:20:27.274Z,73.49
2023-01-29T08:23:08.471Z,72.70
2023-01-29T08:25:36.286Z,71.80
2023-01-29T08:28:04.163Z,71.42
2023-01-29T08:30:32.904Z,72.19
2023-01-29T08:32:59.492Z,71.87
2023-01-29T08:35:26.186Z,72.16
2023-01-29T08:37:54.228Z,72.42
2023-01-29T08:40:21.045Z,72.28
2023-01-29T08:42:47.515Z,72.24
2023-01-29T08:45:13.936Z,71.62
2023-01-29T08:47:46.327Z,72.77
2023-01-29T08:50:12.875Z,71.79
2023-01-29T08:52:39.234Z,71.08
2023-01-29T08:55:06.183Z,71.74
2023-01-29T08:57:32.591Z,72.08
2023-01-29T08:59:58.956Z,72.52
2023-01-29T09:02:25.379Z,72.48
2023-01-29T09:04:51.740Z,72.40
2023-01-29T09:07:18.136Z,71.87
2023-01-29T09:09:44.508Z,71.96
2023-01-29T09:12:10.863Z,72.28
2023-01-29T09:14:37.207Z,72.21
2023-01-29T09:17:03.622Z,71.48
2023-01-29T09:19:30.009Z,71.98
2023-01-29T09:21:56.483Z,72.17
2023-01-29T09:24:22.842Z,72.07
2023-01-29T09:26:49.764Z,71.64
2023-01-29T09:29:16.169Z,72.21
2023-01-29T09:31:43.721Z,71.90
2023-01-29T09:34:10.155Z,71.78
2023-01-29T09:36:36.593Z,70.97
2023-01-29T09:39:03.463Z,71.53
2023-01-29T09:42:11.159Z,71.92
2023-01-29T09:44:59.010Z,72.08
2023-01-29T09:47:27.502Z,72.12
2023-01-29T09:50:15.296Z,72.35
2023-01-29T09:53:11.272Z,71.66
2023-01-29T09:55:44.772Z,71.92
2023-01-29T09:58:27.761Z,72.01
2023-01-29T10:01:00.123Z,71.57
2023-01-29T10:04:03.617Z,71.46
2023-01-29T10:06:54.858Z,70.98
2023-01-29T10:09:40.077Z,71.35
2023-01-29T10:12:36.156Z,71.27
2023-01-29T10:15:11.128Z,70.87
2023-01-29T10:17:55.545Z,71.33
2023-01-29T10:20:54.339Z,71.21
2023-01-29T10:23:31.494Z,70.67
2023-01-29T10:25:59.007Z,71.16
2023-01-29T10:28:38.125Z,71.17
2023-01-29T10:31:10.075Z,71.31
2023-01-29T10:33:49.162Z,71.78
2023-01-29T10:36:25.551Z,70.99
2023-01-29T10:38:52.530Z,71.28
2023-01-29T10:41:45.159Z,71.84
2023-01-29T10:44:24.617Z,72.17
2023-01-29T10:47:07.070Z,72.21
2023-01-29T10:49:57.715Z,72.34
2023-01-29T10:52:36.637Z,72.28
2023-01-29T10:55:20.838Z,71.91
2023-01-29T10:58:09.056Z,72.08
2023-01-29T11:00:39.220Z,72.15
2023-01-29T11:03:28.075Z,71.74
2023-01-29T11:06:02.826Z,71.65
2023-01-29T11:08:39.778Z,71.44
2023-01-29T11:11:18.645Z,71.76
2023-01-29T11:13:57.391Z,71.67
2023-01-29T11:16:24.538Z,71.86
2023-01-29T11:18:54.604Z,71.67
2023-01-29T11:21:22.157Z,71.55
2023-01-29T11:23:49.117Z,71.52
2023-01-29T11:26:20.877Z,71.31
2023-01-29T11:28:49.596Z,71.11
2023-01-29T11:31:26.175Z,71.44
2023-01-29T11:34:02.257Z,71.49
2023-01-29T11:36:34.528Z,71.13
2023-01-29T11:39:21.609Z,71.38
2023-01-29T11:41:57.455Z,71.25
2023-01-29T11:44:26.871Z,71.43
2023-01-29T11:46:53.608Z,71.28
2023-01-29T11:49:27.807Z,71.63
2023-01-29T11:51:56.063Z,71.84
2023-01-29T11:54:27.941Z,71.03
2023-01-29T11:56:55.653Z,71.75
2023-01-29T11:59:42.751Z,71.87
2023-01-29T12:02:36.205Z,71.22
2023-01-29T12:05:18.175Z,71.85
2023-01-29T12:07:49.056Z,72.35
2023-01-29T12:10:36.550Z,71.83
2023-01-29T12:13:21.207Z,71.64
2023-01-29T12:15:49.112Z,71.56
2023-01-29T12:18:15.520Z,71.49
2023-01-29T12:21:10.253Z,71.09
2023-01-29T12:23:43.558Z,71.46
2023-01-29T12:26:15.992Z,71.02
2023-01-29T12:29:11.346Z,70.96
2023-01-29T12:31:59.191Z,71.08
2023-01-29T12:34:35.949Z,70.85
2023-01-29T12:37:28.656Z,70.69
2023-01-29T12:39:55.331Z,70.87
2023-01-29T12:42:24.272Z,70.85
2023-01-29T12:44:53.082Z,70.86
2023-01-29T12:47:27.925Z,70.74
2023-01-29T12:49:58.109Z,71.21
2023-01-29T12:52:34.849Z,71.33
2023-01-29T12:55:10.707Z,71.47
2023-01-29T12:57:54.747Z,70.98
2023-01-29T13:00:28.291Z,70.87
2023-01-29T13:03:04.282Z,70.86
2023-01-29T13:05:46.041Z,71.23
2023-01-29T13:08:38.123Z,71.18
2023-01-29T13:11:10.751Z,71.16
2023-01-29T13:13:45.166Z,71.01
2023-01-29T13:16:15.749Z,71.65
2023-01-29T13:18:55.959Z,71.45
2023-01-29T13:21:27.331Z,71.47
2023-01-29T13:24:25.204Z,71.64
2023-01-29T13:26:51.991Z,71.93
2023-01-29T13:29:24.221Z,71.73
2023-01-29T13:31:53.083Z,71.79
2023-01-29T13:34:28.361Z,72.36
2023-01-29T13:36:57.732Z,71.86
2023-01-29T13:39:34.128Z,72.16
2023-01-29T13:42:02.839Z,72.34
2023-01-29T13:44:33.668Z,72.85
2023-01-29T13:47:03.561Z,71.99
2023-01-29T13:49:43.737Z,72.90
2023-01-29T13:52:34.916Z,72.37
2023-01-29T13:55:22.326Z,71.94
2023-01-29T13:57:54.679Z,72.32
2023-01-29T14:00:22.189Z,72.70
2023-01-29T14:03:08.818Z,72.89
2023-01-29T14:05:57.208Z,72.73
2023-01-29T14:08:38.814Z,72.27
2023-01-29T14:11:17.381Z,72.70
2023-01-29T14:13:46.494Z,73.11
2023-01-29T14:16:13.073Z,72.85
2023-01-29T14:18:48.921Z,72.48
2023-01-29T14:21:25.080Z,72.59
2023-01-29T14:23:52.483Z,72.92
2023-01-29T14:26:29.909Z,73.46
2023-01-29T14:29:04.730Z,72.76
2023-01-29T14:31:44.393Z,73.09
2023-01-29T14:34:36.066Z,72.96
2023-01-29T14:37:20.259Z,73.71
2023-01-29T14:39:57.673Z,73.13
2023-01-29T14:42:35.287Z,73.46
2023-01-29T14:45:11.232Z,73.57
2023-01-29T14:47:37.510Z,73.78
2023-01-29T14:50:23.935Z,73.61
2023-01-29T14:52:53.952Z,73.42
2023-01-29T14:55:50.462Z,73.60
2023-01-29T14:58:23.259Z,73.82
2023-01-29T15:00:54.372Z,73.38
2023-01-29T15:03:33.108Z,73.33
2023-01-29T15:06:00.824Z,73.07
2023-01-29T15:08:35.911Z,73.58
2023-01-29T15:11:26.595Z,73.33
2023-01-29T15:14:03.885Z,73.73
2023-01-29T15:16:49.025Z,73.58
2023-01-29T15:19:23.479Z,73.99
2023-01-29T15:22:23.284Z,74.01
2023-01-29T15:25:06.097Z,74.01
2023-01-29T15:27:33.334Z,74.20
2023-01-29T15:30:02.332Z,74.55
2023-01-29T15:32:35.319Z,74.14
2023-01-29T15:35:09.872Z,74.39
2023-01-29T15:37:37.371Z,74.30
2023-01-29T15:40:07.003Z,74.17
2023-01-29T15:42:48.487Z,73.85
2023-01-29T15:45:32.480Z,73.84
2023-01-29T15:48:07.761Z,74.05
2023-01-29T15:50:39.215Z,74.76
2023-01-29T15:53:12.627Z,74.62
2023-01-29T15:55:40.059Z,74.27
2023-01-29T15:58:13.323Z,74.59
2023-01-29T16:00:39.911Z,74.95
2023-01-29T16:03:16.013Z,75.05
2023-01-29T16:05:42.796Z,74.94
2023-01-29T16:08:14.029Z,75.10
2023-01-29T16:10:42.211Z,75.44
2023-01-29T16:13:21.849Z,74.35
2023-01-29T16:16:00.622Z,74.57
2023-01-29T16:18:35.312Z,74.90
2023-01-29T16:21:34.569Z,74.56
2023-01-29T16:24:11.851Z,75.23
2023-01-29T16:26:45.201Z,75.24
2023-01-29T16:29:16.201Z,74.98
2023-01-29T16:31:44.324Z,74.62
2023-01-29T16:34:24.373Z,74.78
2023-01-29T16:36:53.422Z,74.63
2023-01-29T16:39:24.358Z,74.71
2023-01-29T16:42:09.648Z,74.74
2023-01-29T16:44:39.073Z,74.94
2023-01-29T16:47:14.357Z,74.89
2023-01-29T16:49:43.309Z,74.46
2023-01-29T16:52:33.974Z,74.47
2023-01-29T16:55:12.616Z,74.55
2023-01-29T16:57:40.383Z,74.69
2023-01-29T17:00:12.547Z,74.55
2023-01-29T17:02:39.319Z,74.63
2023-01-29T17:05:09.500Z,74.68
2023-01-29T17:07:37.627Z,74.58
2023-01-29T17:10:07.211Z,74.39
2023-01-29T17:12:34.372Z,74.31
2023-01-29T17:15:04.391Z,74.52
2023-01-29T17:17:30.713Z,73.99
2023-01-29T17:19:58.725Z,74.21
2023-01-29T17:22:25.361Z,74.22
2023-01-29T17:24:51.746Z,73.75
2023-01-29T17:27:22.909Z,73.76
2023-01-29T17:29:49.687Z,73.72
2023-01-29T17:32:19.656Z,73.25
2023-01-29T17:34:46.891Z,73.04
2023-01-29T17:37:15.450Z,73.32
2023-01-29T17:39:43.850Z,73.16
2023-01-29T17:42:13.892Z,72.55
2023-01-29T17:44:41.333Z,72.93
2023-01-29T17:47:12.509Z,72.92
2023-01-29T17:49:39.074Z,73.09
2023-01-29T17:52:05.561Z,73.18
2023-01-29T17:54:31.961Z,73.04
2023-01-29T17:56:58.431Z,72.46
2023-01-29T17:59:30.035Z,72.71
2023-01-29T18:01:56.550Z,72.43
2023-01-29T18:04:23.166Z,71.96
2023-01-29T18:06:51.329Z,72.26
2023-01-29T18:09:22.761Z,72.11
2023-01-29T18:11:50.550Z,71.56
2023-01-29T18:14:17.616Z,71.55
2023-01-29T18:16:45.040Z,70.83
2023-01-29T18:19:23.329Z,71.02
2023-01-29T18:21:50.181Z,71.57
2023-01-29T18:24:16.631Z,71.28
2023-01-29T18:26:43.137Z,71.52
2023-01-29T18:29:09.631Z,71.45
2023-01-29T18:31:36.093Z,71.35
2023-01-29T18:34:02.548Z,71.46
2023-01-29T18:36:29.085Z,71.86
2023-01-29T18:38:56.902Z,71.74
2023-01-29T18:41:23.353Z,71.71
2023-01-29T18:43:51.691Z,71.83
2023-01-29T18:46:18.519Z,71.47
2023-01-29T18:48:44.880Z,72.12
2023-01-29T18:51:11.369Z,71.78
2023-01-29T18:53:37.762Z,71.74
2023-01-29T18:56:05.659Z,71.65
2023-01-29T18:58:36.697Z,71.60
2023-01-29T19:01:10.095Z,71.38
2023-01-29T19:03:37.228Z,71.81
2023-01-29T19:06:05.789Z,70.92
2023-01-29T19:08:32.488Z,71.33
2023-01-29T19:11:02.284Z,70.92
2023-01-29T19:13:30.110Z,71.83
2023-01-29T19:15:56.692Z,71.46
2023-01-29T19:18:23.507Z,71.58
2023-01-29T19:20:50.077Z,71.41
2023-01-29T19:23:16.527Z,71.31
2023-01-29T19:25:43.457Z,70.84
2023-01-29T19:28:09.911Z,71.14
2023-01-29T19:30:36.326Z,71.10
2023-01-29T19:33:02.824Z,70.80
2023-01-29T19:35:29.273Z,70.80
2023-01-29T19:37:56.046Z,70.71
2023-01-29T19:40:23.730Z,70.37
2023-01-29T19:42:55.392Z,70.58
2023-01-29T19:45:49.945Z,71.05
2023-01-29T19:48:14.766Z,70.63
2023-01-29T19:50:41.822Z,71.16
2023-01-29T19:53:08.212Z,71.39
2023-01-29T19:55:34.692Z,70.50
2023-01-29T19:58:01.094Z,70.72
2023-01-29T20:00:27.667Z,70.94
2023-01-29T20:02:54.054Z,70.78
2023-01-29T20:05:20.687Z,70.68
2023-01-29T20:07:47.217Z,70.91
2023-01-29T20:10:17.386Z,70.87
2023-01-29T20:12:45.101Z,70.65
2023-01-29T20:15:13.331Z,70.97
2023-01-29T20:17:40.023Z,70.48
2023-01-29T20:20:07.135Z,70.86
2023-01-29T20:22:33.593Z,70.76
2023-01-29T20:25:00.034Z,71.51
2023-01-29T20:27:26.571Z,71.06
2023-01-29T20:29:53.006Z,71.08
2023-01-29T20:32:19.517Z,71.49
2023-01-29T20:34:49.618Z,71.65
2023-01-29T20:37:16.082Z,71.71
2023-01-29T20:39:42.709Z,72.48
2023-01-29T20:42:09.120Z,71.83
2023-01-29T20:44:35.683Z,71.54
2023-01-29T20:47:02.631Z,71.43
2023-01-29T20:49:29.172Z,71.87
2023-01-29T20:51:55.598Z,71.99
2023-01-29T20:54:22.051Z,72.22
2023-01-29T20:56:48.736Z,71.74
2023-01-29T20:59:15.646Z,71.45
2023-01-29T21:01:43.143Z,71.61
2023-01-29T21:04:09.564Z,71.91
2023-01-29T21:06:35.958Z,72.17
2023-01-29T21:09:02.350Z,72.21
2023-01-29T21:11:29.003Z,71.60
2023-01-29T21:13:57.823Z,71.65
2023-01-29T21:16:26.193Z,72.03
2023-01-29T21:18:55.935Z,72.59
2023-01-29T21:21:22.371Z,71.46
2023-01-29T21:23:49.029Z,72.13
2023-01-29T21:26:15.569Z,71.67
2023-01-29T21:28:41.991Z,71.40
2023-01-29T21:31:11.546Z,71.35
2023-01-29T21:33:38.292Z,71.11
2023-01-29T21:36:05.030Z,72.48
2023-01-29T21:38:31.420Z,71.05
2023-01-29T21:41:03.211Z,71.00
2023-01-29T21:43:29.620Z,71.27
2023-01-29T21:45:57.494Z,70.02
2023-01-29T21:48:24.631Z,70.33
2023-01-29T21:50:51.944Z,70.13
2023-01-29T21:53:19.052Z,70.26
2023-01-29T21:55:46.085Z,70.14
2023-01-29T21:58:14.408Z,70.12
2023-01-29T22:00:41.057Z,70.07
2023-01-29T22:03:07.433Z,69.57
2023-01-29T22:05:34.084Z,69.21
2023-01-29T22:08:00.727Z,69.75
2023-01-29T22:10:27.627Z,68.94
2023-01-29T22:12:54.151Z,69.24
2023-01-29T22:15:23.278Z,69.31
2023-01-29T22:17:50.048Z,69.48
2023-01-29T22:20:16.737Z,69.75
2023-01-29T22:22:43.437Z,69.26
2023-01-29T22:25:10.007Z,69.36
2023-01-29T22:27:36.407Z,68.81
2023-01-29T22:30:03.583Z,69.42
2023-01-29T22:32:32.032Z,68.88
2023-01-29T22:34:58.447Z,69.86
2023-01-29T22:37:24.816Z,69.41
2023-01-29T22:39:51.194Z,69.31
2023-01-29T22:42:19.994Z,69.46
2023-01-29T22:44:47.908Z,69.60
2023-01-29T22:47:14.281Z,68.86
2023-01-29T22:49:41.550Z,69.39
2023-01-29T22:52:10.984Z,68.69
2023-01-29T22:54:39.578Z,68.97
2023-01-29T22:57:06.599Z,68.84
2023-01-29T22:59:33.385Z,68.92
2023-01-29T23:01:59.948Z,68.95
2023-01-29T23:04:26.489Z,68.99
2023-01-29T23:06:52.960Z,68.98
2023-01-29T23:09:19.509Z,69.14
2023-01-29T23:11:45.899Z,68.80
2023-01-29T23:14:12.305Z,69.30
2023-01-29T23:16:38.667Z,68.71
2023-01-29T23:19:05.200Z,68.61
2023-01-29T23:21:31.646Z,68.74
2023-01-29T23:24:01.315Z,68.91
2023-01-29T23:26:47.606Z,68.90
2023-01-29T23:29:14.439Z,69.14
2023-01-29T23:31:40.901Z,69.15
2023-01-29T23:34:07.382Z,68.95
2023-01-29T23:36:33.828Z,68.89
2023-01-29T23:39:00.509Z,69.08
2023-01-29T23:41:27.042Z,68.97
2023-01-29T23:43:53.485Z,68.73
2023-01-29T23:46:19.883Z,69.07
2023-01-29T23:48:46.251Z,68.86
2023-01-29T23:51:12.870Z,68.46
2023-01-29T23:53:39.560Z,68.40
2023-01-29T23:56:06.390Z,68.57
2023-01-29T23:58:33.435Z,68.44
